Time;durP1;ratioP1;P1;durP2;ratioP2;P2;SDS_P1;SDS_P2;PMS_P1;PMS_P2;Temp;Humidity;BMP_temperature;BMP_pressure;BME280_temperature;BME280_humidity;BME280_pressure;Samples;Min_cycle;Max_cycle;Signal;HPM_P1;HPM_P2
2023/12/03 00:01:52;;;;;;;30.65;13.75;;;;;;;;;;5065144;28;20115;-80
2023/12/03 00:04:18;;;;;;;35.50;13.90;;;;;;;;;;5064593;28;20116;-80
2023/12/03 00:06:43;;;;;;;33.22;13.75;;;;;;;;;;5060474;28;20020;-81
2023/12/03 00:09:09;;;;;;;28.02;11.85;;;;;;;;;;5062850;28;20389;-80
2023/12/03 00:11:34;;;;;;;28.25;12.65;;;;;;;;;;5063791;28;20032;-80
2023/12/03 00:14:01;;;;;;;30.23;13.10;;;;;;;;;;5066020;28;20036;-81
2023/12/03 00:16:26;;;;;;;29.85;12.00;;;;;;;;;;5064732;28;20028;-80
2023/12/03 00:18:52;;;;;;;28.55;12.52;;;;;;;;;;5063865;28;20367;-85
2023/12/03 00:21:17;;;;;;;33.72;13.85;;;;;;;;;;5059510;28;20064;-85
2023/12/03 00:23:43;;;;;;;39.85;14.48;;;;;;;;;;5066839;28;20032;-84
2023/12/03 00:26:08;;;;;;;35.35;14.60;;;;;;;;;;5063546;28;20021;-84
2023/12/03 00:28:33;;;;;;;40.92;15.90;;;;;;;;;;5065313;28;22021;-84
2023/12/03 00:30:59;;;;;;;35.60;15.50;;;;;;;;;;5062701;28;20060;-85
2023/12/03 00:33:24;;;;;;;43.83;16.58;;;;;;;;;;5070380;28;20028;-84
2023/12/03 00:35:49;;;;;;;40.05;16.65;;;;;;;;;;5062904;28;20029;-84
2023/12/03 00:38:15;;;;;;;40.65;16.17;;;;;;;;;;5067778;28;20033;-80
2023/12/03 00:40:40;;;;;;;39.00;15.48;;;;;;;;;;5069723;28;20024;-80
2023/12/03 00:43:06;;;;;;;42.70;15.57;;;;;;;;;;5071134;28;20027;-80
2023/12/03 00:45:31;;;;;;;39.55;16.10;;;;;;;;;;5068656;28;20032;-80
2023/12/03 00:47:56;;;;;;;41.22;16.48;;;;;;;;;;5069549;28;20066;-80
2023/12/03 00:50:22;;;;;;;40.70;16.67;;;;;;;;;;5068441;28;20458;-80
2023/12/03 00:52:48;;;;;;;39.05;15.80;;;;;;;;;;5069622;28;20032;-80
2023/12/03 00:55:13;;;;;;;38.92;15.07;;;;;;;;;;5062137;28;20037;-80
2023/12/03 00:57:40;;;;;;;37.00;14.70;;;;;;;;;;5066740;28;20032;-80
2023/12/03 01:00:06;;;;;;;38.40;15.20;;;;;;;;;;5063718;28;20031;-80
2023/12/03 01:02:33;;;;;;;39.13;14.50;;;;;;;;;;5068076;28;20021;-80
2023/12/03 01:04:58;;;;;;;37.03;14.98;;;;;;;;;;5063252;28;20024;-80
2023/12/03 01:07:23;;;;;;;34.10;15.48;;;;;;;;;;5068018;28;20031;-80
2023/12/03 01:09:49;;;;;;;36.50;14.13;;;;;;;;;;5067439;28;20379;-80
2023/12/03 01:12:14;;;;;;;38.65;14.35;;;;;;;;;;5070222;28;20043;-80
2023/12/03 01:14:39;;;;;;;34.28;14.55;;;;;;;;;;5066635;28;20028;-80
2023/12/03 01:17:05;;;;;;;33.92;14.45;;;;;;;;;;5067038;28;20420;-80
2023/12/03 01:19:30;;;;;;;32.40;13.95;;;;;;;;;;5067616;28;20020;-80
2023/12/03 01:21:56;;;;;;;33.58;13.82;;;;;;;;;;5069794;28;20462;-80
2023/12/03 01:24:21;;;;;;;33.60;14.55;;;;;;;;;;5067204;28;20115;-80
2023/12/03 01:26:47;;;;;;;34.83;14.95;;;;;;;;;;5059823;28;20115;-85
2023/12/03 01:29:12;;;;;;;34.50;14.50;;;;;;;;;;5059550;28;20044;-85
2023/12/03 01:31:37;;;;;;;28.25;13.32;;;;;;;;;;5067157;28;20033;-85
2023/12/03 01:34:03;;;;;;;32.25;15.43;;;;;;;;;;5065183;28;20032;-85
2023/12/03 01:36:28;;;;;;;35.53;14.95;;;;;;;;;;5070348;28;20090;-84
2023/12/03 01:38:54;;;;;;;34.05;15.13;;;;;;;;;;5062198;28;20029;-85
2023/12/03 01:41:19;;;;;;;30.02;13.40;;;;;;;;;;5065341;28;20491;-84
2023/12/03 01:43:54;;;;;;;34.88;14.88;;;;;;;;;;5061979;28;20389;-84
2023/12/03 01:46:21;;;;;;;33.08;14.43;;;;;;;;;;5060924;28;20094;-85
2023/12/03 01:48:47;;;;;;;33.22;14.82;;;;;;;;;;5067142;28;20055;-85
2023/12/03 01:51:15;;;;;;;29.55;14.10;;;;;;;;;;5068846;28;20039;-85
2023/12/03 01:53:44;;;;;;;33.45;14.98;;;;;;;;;;5062540;28;20054;-85
2023/12/03 01:56:10;;;;;;;34.65;15.15;;;;;;;;;;5063902;28;20132;-85
2023/12/03 01:58:35;;;;;;;32.67;14.13;;;;;;;;;;5060005;28;20025;-85
2023/12/03 02:01:01;;;;;;;33.95;15.15;;;;;;;;;;5062195;28;20028;-85
2023/12/03 02:03:27;;;;;;;31.00;15.25;;;;;;;;;;5059269;28;20992;-85
2023/12/03 02:06:10;;;;;;;32.17;15.30;;;;;;;;;;5070055;28;20505;-85
2023/12/03 02:08:35;;;;;;;32.22;15.15;;;;;;;;;;5060146;28;20321;-84
2023/12/03 02:11:03;;;;;;;31.30;15.85;;;;;;;;;;5066112;28;20548;-85
2023/12/03 02:13:31;;;;;;;29.83;15.02;;;;;;;;;;5062152;28;20098;-85
2023/12/03 02:15:57;;;;;;;30.30;14.95;;;;;;;;;;5064928;28;20063;-85
2023/12/03 02:18:22;;;;;;;27.25;14.15;;;;;;;;;;5046677;28;20036;-84
2023/12/03 02:20:48;;;;;;;30.92;15.18;;;;;;;;;;5069008;28;20079;-85
2023/12/03 02:23:14;;;;;;;29.48;15.57;;;;;;;;;;5070899;28;20047;-84
2023/12/03 02:25:41;;;;;;;32.30;14.82;;;;;;;;;;5074561;28;20028;-85
2023/12/03 02:28:06;;;;;;;27.58;14.05;;;;;;;;;;5070761;28;20559;-85
2023/12/03 02:30:31;;;;;;;27.52;13.80;;;;;;;;;;5069384;28;20108;-85
2023/12/03 02:32:57;;;;;;;28.58;15.02;;;;;;;;;;5067394;28;20035;-85
2023/12/03 02:35:22;;;;;;;26.50;13.88;;;;;;;;;;5064733;28;20075;-85
2023/12/03 02:37:48;;;;;;;28.30;14.63;;;;;;;;;;5067951;28;20041;-80
2023/12/03 02:40:13;;;;;;;32.40;14.57;;;;;;;;;;5066765;28;20028;-80
2023/12/03 02:42:38;;;;;;;27.58;14.52;;;;;;;;;;5066932;28;20473;-81
2023/12/03 02:45:05;;;;;;;26.83;14.68;;;;;;;;;;5068576;28;20032;-80
2023/12/03 02:47:30;;;;;;;29.02;15.38;;;;;;;;;;5064758;28;20025;-80
2023/12/03 02:49:55;;;;;;;25.75;14.48;;;;;;;;;;5065095;28;20036;-80
2023/12/03 02:52:21;;;;;;;26.88;14.23;;;;;;;;;;5061393;28;20082;-80
2023/12/03 02:54:46;;;;;;;23.77;13.52;;;;;;;;;;5062809;28;20541;-80
2023/12/03 02:57:11;;;;;;;26.52;14.63;;;;;;;;;;5063147;28;20025;-80
2023/12/03 02:59:37;;;;;;;25.67;13.93;;;;;;;;;;5063530;28;20040;-80
2023/12/03 03:02:02;;;;;;;24.63;14.82;;;;;;;;;;5064646;28;20487;-80
2023/12/03 03:04:28;;;;;;;26.45;14.15;;;;;;;;;;5069827;28;20107;-80
2023/12/03 03:06:53;;;;;;;25.83;14.18;;;;;;;;;;5064125;28;20025;-80
2023/12/03 03:09:18;;;;;;;24.38;13.45;;;;;;;;;;5063258;28;20053;-80
2023/12/03 03:11:44;;;;;;;26.63;13.68;;;;;;;;;;5070140;28;20074;-80
2023/12/03 03:14:09;;;;;;;23.17;13.00;;;;;;;;;;5068353;28;20033;-79
2023/12/03 03:16:35;;;;;;;24.63;13.77;;;;;;;;;;5063009;28;20046;-80
2023/12/03 03:19:00;;;;;;;22.10;12.85;;;;;;;;;;5067027;28;20024;-80
2023/12/03 03:21:26;;;;;;;24.95;14.18;;;;;;;;;;5069019;28;20131;-80
2023/12/03 03:23:51;;;;;;;26.60;14.10;;;;;;;;;;5064233;28;20021;-79
2023/12/03 03:26:16;;;;;;;24.77;14.15;;;;;;;;;;5065555;28;20027;-80
2023/12/03 03:28:42;;;;;;;23.23;13.55;;;;;;;;;;5063028;28;20040;-80
2023/12/03 03:31:07;;;;;;;25.15;13.60;;;;;;;;;;5066493;28;20389;-80
2023/12/03 03:33:32;;;;;;;21.65;12.57;;;;;;;;;;5065496;28;20470;-80
2023/12/03 03:35:58;;;;;;;25.08;13.43;;;;;;;;;;5067578;28;20024;-80
2023/12/03 03:38:23;;;;;;;23.83;13.95;;;;;;;;;;5060288;28;20394;-80
2023/12/03 03:40:48;;;;;;;26.00;14.35;;;;;;;;;;5064549;28;20490;-80
2023/12/03 03:43:14;;;;;;;24.85;13.88;;;;;;;;;;5057752;28;20024;-79
2023/12/03 03:45:39;;;;;;;23.77;13.43;;;;;;;;;;5068423;28;20619;-80
2023/12/03 03:48:05;;;;;;;26.25;14.02;;;;;;;;;;5068294;28;20025;-84
2023/12/03 03:50:30;;;;;;;25.15;13.05;;;;;;;;;;5061413;28;20039;-85
2023/12/03 03:52:56;;;;;;;24.83;12.93;;;;;;;;;;5065250;28;20071;-85
2023/12/03 03:55:22;;;;;;;22.45;12.57;;;;;;;;;;5065098;28;20024;-85
2023/12/03 03:57:47;;;;;;;22.35;13.13;;;;;;;;;;5069551;28;20028;-84
2023/12/03 04:00:14;;;;;;;23.52;13.43;;;;;;;;;;5065939;28;20494;-85
2023/12/03 04:02:39;;;;;;;28.05;14.40;;;;;;;;;;5066004;28;20032;-85
2023/12/03 04:05:05;;;;;;;25.45;13.57;;;;;;;;;;5062882;28;20021;-85
2023/12/03 04:07:31;;;;;;;22.42;12.85;;;;;;;;;;5065105;28;20784;-80
2023/12/03 04:09:56;;;;;;;22.92;12.77;;;;;;;;;;5074010;28;20405;-81
2023/12/03 04:12:22;;;;;;;23.85;13.82;;;;;;;;;;5063844;28;20050;-81
2023/12/03 04:14:50;;;;;;;23.10;13.32;;;;;;;;;;5065794;28;20025;-81
2023/12/03 04:17:15;;;;;;;23.92;13.20;;;;;;;;;;5059978;28;20024;-81
2023/12/03 04:19:40;;;;;;;27.20;13.85;;;;;;;;;;5060664;28;20067;-81
2023/12/03 04:22:06;;;;;;;24.10;13.30;;;;;;;;;;5062293;28;20027;-80
2023/12/03 04:24:31;;;;;;;26.92;13.45;;;;;;;;;;5064692;28;20079;-81
2023/12/03 04:26:56;;;;;;;25.08;13.63;;;;;;;;;;5060885;28;20123;-81
2023/12/03 04:29:22;;;;;;;24.50;13.55;;;;;;;;;;5062681;28;20032;-81
2023/12/03 04:31:49;;;;;;;24.55;13.32;;;;;;;;;;5062885;28;20224;-81
2023/12/03 04:34:14;;;;;;;28.27;14.55;;;;;;;;;;5063739;28;20020;-81
2023/12/03 04:36:42;;;;;;;28.17;14.50;;;;;;;;;;5058797;28;20037;-81
2023/12/03 04:39:08;;;;;;;32.10;14.48;;;;;;;;;;5064515;28;20145;-82
2023/12/03 04:41:37;;;;;;;24.90;13.55;;;;;;;;;;5060894;28;20047;-82
2023/12/03 04:44:04;;;;;;;26.45;14.55;;;;;;;;;;5062742;28;20020;-81
2023/12/03 04:46:29;;;;;;;30.55;14.82;;;;;;;;;;5061140;28;20036;-82
2023/12/03 04:48:55;;;;;;;30.02;13.93;;;;;;;;;;5064494;28;20457;-83
2023/12/03 04:51:20;;;;;;;29.10;14.13;;;;;;;;;;5063213;28;20035;-82
2023/12/03 04:53:47;;;;;;;25.13;13.23;;;;;;;;;;5060960;28;20040;-82
2023/12/03 04:56:12;;;;;;;28.33;14.07;;;;;;;;;;5064055;28;20108;-82
2023/12/03 04:58:39;;;;;;;31.83;14.05;;;;;;;;;;5064511;28;20122;-87
2023/12/03 05:01:04;;;;;;;26.63;14.15;;;;;;;;;;5064330;28;20056;-85
2023/12/03 05:03:30;;;;;;;23.92;12.88;;;;;;;;;;5068334;28;20507;-86
2023/12/03 05:05:55;;;;;;;29.70;14.50;;;;;;;;;;5064626;28;20058;-86
2023/12/03 05:08:20;;;;;;;27.83;14.52;;;;;;;;;;5065210;28;20056;-86
2023/12/03 05:10:46;;;;;;;24.67;13.55;;;;;;;;;;5068608;28;20028;-86
2023/12/03 05:13:11;;;;;;;25.15;14.27;;;;;;;;;;5066273;28;20026;-86
2023/12/03 05:15:37;;;;;;;26.45;13.70;;;;;;;;;;5065275;28;20133;-86
2023/12/03 05:18:02;;;;;;;25.38;14.10;;;;;;;;;;5065354;28;20042;-87
2023/12/03 05:20:28;;;;;;;28.13;13.65;;;;;;;;;;5068065;28;20375;-86
2023/12/03 05:22:53;;;;;;;26.05;13.68;;;;;;;;;;5064851;28;20438;-87
2023/12/03 05:25:19;;;;;;;25.58;12.68;;;;;;;;;;5073968;28;20032;-86
2023/12/03 05:27:45;;;;;;;26.65;13.38;;;;;;;;;;5067444;28;20108;-86
2023/12/03 05:30:13;;;;;;;25.52;14.10;;;;;;;;;;5067858;28;20028;-87
2023/12/03 05:32:39;;;;;;;26.23;14.50;;;;;;;;;;5068670;28;20157;-86
2023/12/03 05:35:05;;;;;;;24.70;13.35;;;;;;;;;;5063273;28;20470;-86
2023/12/03 05:37:31;;;;;;;25.10;14.13;;;;;;;;;;5065422;28;20025;-86
2023/12/03 05:39:56;;;;;;;25.23;13.57;;;;;;;;;;5068231;28;20028;-86
2023/12/03 05:42:22;;;;;;;26.55;13.63;;;;;;;;;;5063799;28;20545;-86
2023/12/03 05:44:47;;;;;;;27.35;13.60;;;;;;;;;;5062196;28;20074;-87
2023/12/03 05:47:13;;;;;;;24.40;12.65;;;;;;;;;;5068279;28;20031;-86
2023/12/03 05:49:39;;;;;;;24.13;12.45;;;;;;;;;;5062682;28;20039;-87
2023/12/03 05:52:04;;;;;;;28.00;14.25;;;;;;;;;;5067564;28;20086;-86
2023/12/03 05:54:30;;;;;;;25.50;13.55;;;;;;;;;;5063553;28;20142;-87
2023/12/03 05:56:55;;;;;;;27.52;13.25;;;;;;;;;;5070535;28;20028;-87
2023/12/03 05:59:22;;;;;;;29.20;14.82;;;;;;;;;;5072130;28;20035;-86
2023/12/03 06:01:48;;;;;;;29.40;14.30;;;;;;;;;;5066240;28;20368;-85
2023/12/03 06:04:14;;;;;;;30.08;13.77;;;;;;;;;;5069296;28;20070;-86
2023/12/03 06:06:42;;;;;;;27.65;13.80;;;;;;;;;;5068218;28;20033;-83
2023/12/03 06:09:09;;;;;;;26.77;13.65;;;;;;;;;;5072059;28;20040;-86
2023/12/03 06:11:35;;;;;;;25.15;12.68;;;;;;;;;;5073393;28;20478;-86
2023/12/03 06:14:04;;;;;;;26.17;12.93;;;;;;;;;;5067820;28;20055;-87
2023/12/03 06:16:30;;;;;;;27.17;13.90;;;;;;;;;;5066528;28;20033;-87
2023/12/03 06:18:56;;;;;;;28.23;12.88;;;;;;;;;;5069332;28;20032;-86
2023/12/03 06:21:22;;;;;;;27.10;13.15;;;;;;;;;;5073107;28;21451;-86
2023/12/03 06:23:47;;;;;;;30.80;14.82;;;;;;;;;;5066031;28;20122;-86
2023/12/03 06:26:14;;;;;;;27.17;13.48;;;;;;;;;;5064590;28;20024;-87
2023/12/03 06:28:40;;;;;;;32.17;13.68;;;;;;;;;;5065495;28;20028;-82
2023/12/03 06:31:06;;;;;;;29.42;13.60;;;;;;;;;;5067829;28;20039;-83
2023/12/03 06:33:35;;;;;;;31.40;14.75;;;;;;;;;;5067629;28;20504;-83
2023/12/03 06:36:01;;;;;;;28.45;13.43;;;;;;;;;;5067309;28;20023;-83
2023/12/03 06:38:29;;;;;;;29.70;13.85;;;;;;;;;;5070673;28;20033;-83
2023/12/03 06:40:56;;;;;;;28.88;15.13;;;;;;;;;;5068494;28;20512;-83
2023/12/03 06:43:21;;;;;;;30.50;13.18;;;;;;;;;;5071258;28;20063;-83
2023/12/03 06:45:46;;;;;;;28.30;13.98;;;;;;;;;;5068415;28;20704;-83
2023/12/03 06:48:12;;;;;;;29.10;14.80;;;;;;;;;;5070006;28;20149;-83
2023/12/03 06:50:37;;;;;;;28.20;12.88;;;;;;;;;;5069700;28;20069;-83
2023/12/03 06:53:03;;;;;;;31.10;14.07;;;;;;;;;;5062433;28;20402;-82
2023/12/03 06:55:30;;;;;;;33.50;14.88;;;;;;;;;;5069392;28;20039;-82
2023/12/03 06:57:56;;;;;;;29.13;14.00;;;;;;;;;;5065423;28;20119;-83
2023/12/03 07:00:23;;;;;;;28.15;14.13;;;;;;;;;;5066189;28;20676;-83
2023/12/03 07:02:49;;;;;;;30.48;15.30;;;;;;;;;;5064060;28;20046;-83
2023/12/03 07:05:17;;;;;;;31.42;14.63;;;;;;;;;;5071956;28;20049;-83
2023/12/03 07:07:42;;;;;;;27.63;14.13;;;;;;;;;;5068197;28;20021;-82
2023/12/03 07:10:08;;;;;;;29.50;14.32;;;;;;;;;;5062927;28;20032;-82
2023/12/03 07:12:33;;;;;;;28.55;14.20;;;;;;;;;;5064414;28;20374;-83
2023/12/03 07:14:59;;;;;;;30.98;14.98;;;;;;;;;;5067702;28;20139;-83
2023/12/03 07:17:24;;;;;;;30.65;13.85;;;;;;;;;;5065862;28;20527;-86
2023/12/03 07:19:50;;;;;;;27.45;13.38;;;;;;;;;;5064942;28;20082;-86
2023/12/03 07:22:15;;;;;;;32.15;15.45;;;;;;;;;;5068325;28;20069;-86
2023/12/03 07:24:41;;;;;;;30.40;14.00;;;;;;;;;;5067485;28;20028;-86
2023/12/03 07:27:07;;;;;;;28.65;13.93;;;;;;;;;;5063634;28;20031;-86
2023/12/03 07:29:33;;;;;;;31.38;13.38;;;;;;;;;;5066322;28;20028;-85
2023/12/03 07:31:59;;;;;;;27.85;12.65;;;;;;;;;;5065083;28;20077;-86
2023/12/03 07:34:26;;;;;;;30.65;13.95;;;;;;;;;;5064747;28;20024;-86
2023/12/03 07:36:51;;;;;;;31.77;14.70;;;;;;;;;;5065720;28;20115;-82
2023/12/03 07:39:17;;;;;;;28.98;14.10;;;;;;;;;;5064050;28;20111;-82
2023/12/03 07:41:54;;;;;;;29.27;13.75;;;;;;;;;;5064404;28;20531;-82
2023/12/03 07:44:20;;;;;;;28.67;12.95;;;;;;;;;;5063651;28;20028;-82
2023/12/03 07:46:46;;;;;;;30.98;13.18;;;;;;;;;;5075920;28;20067;-83
2023/12/03 07:49:11;;;;;;;27.77;13.25;;;;;;;;;;5063516;28;20053;-82
2023/12/03 07:51:37;;;;;;;30.75;13.55;;;;;;;;;;5076248;28;20036;-82
2023/12/03 07:54:05;;;;;;;32.40;14.02;;;;;;;;;;5064091;28;20029;-83
2023/12/03 07:56:35;;;;;;;28.48;13.07;;;;;;;;;;5063813;28;20486;-82
2023/12/03 07:59:01;;;;;;;28.17;12.15;;;;;;;;;;5061334;28;20563;-83
2023/12/03 08:01:26;;;;;;;25.08;12.27;;;;;;;;;;5064318;28;20020;-83
2023/12/03 08:03:52;;;;;;;24.90;12.35;;;;;;;;;;5059963;28;20032;-82
2023/12/03 08:06:17;;;;;;;28.67;13.48;;;;;;;;;;5062666;28;20033;-82
2023/12/03 08:08:43;;;;;;;30.70;14.02;;;;;;;;;;5059441;28;20786;-82
2023/12/03 08:11:08;;;;;;;28.50;14.05;;;;;;;;;;5063334;28;20458;-83
2023/12/03 08:13:35;;;;;;;28.98;13.15;;;;;;;;;;5062354;28;20033;-82
2023/12/03 08:16:03;;;;;;;27.00;12.73;;;;;;;;;;5060276;28;20301;-82
2023/12/03 08:18:29;;;;;;;28.48;14.27;;;;;;;;;;5066399;28;20114;-83
2023/12/03 08:20:54;;;;;;;30.55;12.90;;;;;;;;;;5062334;28;20013;-82
2023/12/03 08:23:19;;;;;;;26.98;12.50;;;;;;;;;;5060431;28;20032;-83
2023/12/03 08:25:45;;;;;;;27.55;12.40;;;;;;;;;;5059846;28;20490;-82
2023/12/03 08:28:11;;;;;;;28.77;12.68;;;;;;;;;;5063962;28;20059;-82
2023/12/03 08:30:38;;;;;;;24.42;11.75;;;;;;;;;;5060408;28;20032;-82
2023/12/03 08:33:03;;;;;;;25.23;12.30;;;;;;;;;;5062855;28;20028;-82
2023/12/03 08:35:31;;;;;;;29.27;14.02;;;;;;;;;;5062608;28;20051;-82
2023/12/03 08:37:57;;;;;;;29.05;13.27;;;;;;;;;;5061546;28;20506;-82
2023/12/03 08:40:22;;;;;;;28.50;12.38;;;;;;;;;;5063125;28;20691;-81
2023/12/03 08:42:49;;;;;;;24.05;11.75;;;;;;;;;;5061958;28;20372;-82
2023/12/03 08:45:15;;;;;;;31.30;12.10;;;;;;;;;;5059361;28;20136;-82
2023/12/03 08:47:42;;;;;;;26.38;12.48;;;;;;;;;;5061640;28;20210;-82
2023/12/03 08:50:07;;;;;;;27.20;12.45;;;;;;;;;;5058876;28;20028;-82
2023/12/03 08:52:33;;;;;;;27.00;12.75;;;;;;;;;;5066243;28;20029;-82
2023/12/03 08:54:59;;;;;;;26.65;12.68;;;;;;;;;;5065938;28;20133;-81
2023/12/03 08:57:25;;;;;;;26.60;12.30;;;;;;;;;;5057070;28;20112;-81
2023/12/03 08:59:53;;;;;;;27.38;12.05;;;;;;;;;;5058145;28;20131;-81
2023/12/03 09:02:19;;;;;;;24.20;11.52;;;;;;;;;;5058510;28;20066;-81
2023/12/03 09:04:46;;;;;;;26.50;12.13;;;;;;;;;;5062660;28;20035;-81
2023/12/03 09:07:13;;;;;;;30.88;13.00;;;;;;;;;;5063863;28;20024;-82
2023/12/03 09:09:39;;;;;;;24.65;12.07;;;;;;;;;;5061496;28;20041;-81
2023/12/03 09:12:05;;;;;;;26.63;11.50;;;;;;;;;;5060269;28;20016;-81
2023/12/03 09:14:31;;;;;;;29.60;12.68;;;;;;;;;;5059520;28;20024;-80
2023/12/03 09:16:58;;;;;;;27.33;11.82;;;;;;;;;;5059608;28;20386;-81
2023/12/03 09:19:24;;;;;;;25.27;12.75;;;;;;;;;;5060902;28;20028;-81
2023/12/03 09:21:49;;;;;;;28.65;12.30;;;;;;;;;;5066000;28;20020;-81
2023/12/03 09:24:15;;;;;;;29.15;12.27;;;;;;;;;;5061187;28;20020;-80
2023/12/03 09:26:43;;;;;;;29.80;12.65;;;;;;;;;;5061038;28;20035;-80
2023/12/03 09:29:10;;;;;;;24.90;12.48;;;;;;;;;;5056423;28;20029;-80
2023/12/03 09:31:36;;;;;;;27.73;13.70;;;;;;;;;;5064322;28;20143;-80
2023/12/03 09:34:01;;;;;;;30.60;12.25;;;;;;;;;;5064530;28;20120;-79
2023/12/03 09:36:27;;;;;;;25.92;11.77;;;;;;;;;;5064596;28;20024;-80
2023/12/03 09:38:52;;;;;;;25.70;12.38;;;;;;;;;;5064456;28;20421;-83
2023/12/03 09:41:19;;;;;;;26.60;12.00;;;;;;;;;;5064440;28;20489;-84
2023/12/03 09:43:46;;;;;;;27.88;12.38;;;;;;;;;;5066646;28;20025;-83
2023/12/03 09:46:15;;;;;;;26.63;12.52;;;;;;;;;;5065469;28;20107;-83
2023/12/03 09:48:43;;;;;;;25.85;12.02;;;;;;;;;;5061221;28;20032;-83
2023/12/03 09:51:12;;;;;;;25.42;11.93;;;;;;;;;;5061753;28;20474;-83
2023/12/03 09:53:43;;;;;;;22.35;10.70;;;;;;;;;;5065882;28;20028;-83
2023/12/03 09:56:09;;;;;;;24.90;11.48;;;;;;;;;;5048227;28;20032;-84
2023/12/03 09:58:35;;;;;;;26.33;11.98;;;;;;;;;;5062572;28;20028;-79
2023/12/03 10:01:02;;;;;;;26.67;11.60;;;;;;;;;;5059984;28;20037;-79
2023/12/03 10:03:28;;;;;;;24.98;11.63;;;;;;;;;;5062466;28;20024;-79
2023/12/03 10:05:54;;;;;;;24.40;11.07;;;;;;;;;;5062217;28;20090;-79
2023/12/03 10:08:21;;;;;;;28.02;11.88;;;;;;;;;;5063375;28;20033;-79
2023/12/03 10:10:50;;;;;;;21.85;11.13;;;;;;;;;;5060928;28;20115;-79
2023/12/03 10:13:17;;;;;;;25.63;11.55;;;;;;;;;;5062337;28;20035;-78
2023/12/03 10:15:43;;;;;;;23.83;11.13;;;;;;;;;;5058585;28;20060;-78
2023/12/03 10:18:08;;;;;;;22.25;10.48;;;;;;;;;;5055914;28;20020;-79
2023/12/03 10:20:34;;;;;;;20.70;9.75;;;;;;;;;;5062328;28;20074;-78
2023/12/03 10:23:03;;;;;;;26.08;10.95;;;;;;;;;;5066629;28;20028;-79
2023/12/03 10:25:31;;;;;;;21.98;10.80;;;;;;;;;;5070409;28;20031;-78
2023/12/03 10:27:58;;;;;;;21.40;10.50;;;;;;;;;;5052319;28;20783;-78
2023/12/03 10:30:24;;;;;;;23.25;10.55;;;;;;;;;;5048297;28;20091;-78
2023/12/03 10:32:50;;;;;;;23.55;10.57;;;;;;;;;;5057253;28;20030;-78
2023/12/03 10:35:15;;;;;;;21.73;9.77;;;;;;;;;;5059341;28;20036;-78
2023/12/03 10:37:42;;;;;;;21.77;9.82;;;;;;;;;;5072927;28;20376;-78
2023/12/03 10:40:07;;;;;;;21.98;10.13;;;;;;;;;;5061325;28;20048;-78
2023/12/03 10:42:39;;;;;;;19.73;9.57;;;;;;;;;;5065742;28;20101;-79
2023/12/03 10:45:14;;;;;;;22.25;10.18;;;;;;;;;;5068808;28;20119;-78
2023/12/03 10:47:41;;;;;;;21.13;10.27;;;;;;;;;;5064048;28;20135;-85
2023/12/03 10:50:08;;;;;;;23.17;9.77;;;;;;;;;;5062906;28;20081;-84
2023/12/03 10:52:38;;;;;;;23.92;10.05;;;;;;;;;;5064354;28;20040;-83
2023/12/03 10:55:05;;;;;;;19.85;9.27;;;;;;;;;;5061577;28;20025;-83
2023/12/03 10:57:32;;;;;;;23.33;10.45;;;;;;;;;;5042885;28;20496;-83
2023/12/03 11:00:09;;;;;;;19.92;9.95;;;;;;;;;;5051513;28;20024;-83
2023/12/03 11:02:46;;;;;;;20.92;9.20;;;;;;;;;;5059639;28;20472;-82
2023/12/03 11:05:42;;;;;;;19.02;9.10;;;;;;;;;;5059819;28;20503;-82
2023/12/03 11:08:08;;;;;;;18.73;9.20;;;;;;;;;;5046729;28;20094;-79
2023/12/03 11:10:35;;;;;;;19.85;8.93;;;;;;;;;;5061301;28;20051;-78
2023/12/03 11:13:04;;;;;;;24.10;9.75;;;;;;;;;;5063051;28;20037;-79
2023/12/03 11:15:30;;;;;;;20.38;9.75;;;;;;;;;;5062469;28;20021;-78
2023/12/03 11:17:56;;;;;;;20.10;9.40;;;;;;;;;;5052275;28;20025;-78
2023/12/03 11:20:30;;;;;;;21.80;10.00;;;;;;;;;;5063079;28;20044;-79
2023/12/03 11:23:32;;;;;;;18.65;9.15;;;;;;;;;;5055244;28;20800;-78
2023/12/03 11:26:08;;;;;;;19.17;9.05;;;;;;;;;;5069807;28;20028;-79
2023/12/03 11:28:34;;;;;;;20.60;9.60;;;;;;;;;;5052125;28;20538;-79
2023/12/03 11:30:59;;;;;;;18.60;8.60;;;;;;;;;;5070565;28;20044;-78
2023/12/03 11:33:27;;;;;;;20.13;8.52;;;;;;;;;;5057008;28;20109;-79
2023/12/03 11:35:52;;;;;;;20.88;9.27;;;;;;;;;;5054755;28;20102;-79
2023/12/03 11:38:21;;;;;;;21.67;9.10;;;;;;;;;;5045341;28;20515;-78
2023/12/03 11:40:47;;;;;;;21.60;9.30;;;;;;;;;;5048101;28;20029;-78
2023/12/03 11:43:26;;;;;;;19.65;9.13;;;;;;;;;;5050216;28;20036;-79
2023/12/03 11:45:51;;;;;;;20.38;9.30;;;;;;;;;;5060733;28;20123;-79
2023/12/03 11:48:17;;;;;;;19.95;9.43;;;;;;;;;;5080323;28;20585;-79
2023/12/03 11:50:45;;;;;;;18.50;8.93;;;;;;;;;;5060544;28;20459;-79
2023/12/03 11:53:14;;;;;;;18.40;8.75;;;;;;;;;;5057080;28;20037;-78
2023/12/03 11:55:41;;;;;;;20.02;9.35;;;;;;;;;;5056306;28;20020;-78
2023/12/03 11:58:07;;;;;;;20.73;9.15;;;;;;;;;;5056096;28;20040;-83
2023/12/03 12:00:34;;;;;;;21.02;9.13;;;;;;;;;;5062607;28;20127;-83
2023/12/03 12:03:02;;;;;;;17.52;9.32;;;;;;;;;;5062269;28;20035;-83
2023/12/03 12:05:28;;;;;;;22.55;10.02;;;;;;;;;;5060582;28;20519;-83
2023/12/03 12:08:01;;;;;;;18.85;9.68;;;;;;;;;;5058170;28;20025;-83
2023/12/03 12:10:28;;;;;;;19.63;9.02;;;;;;;;;;5053630;28;20123;-83
2023/12/03 12:12:54;;;;;;;19.85;9.52;;;;;;;;;;5078322;28;20565;-83
2023/12/03 12:15:21;;;;;;;20.55;9.40;;;;;;;;;;5055242;28;20032;-83
2023/12/03 12:17:46;;;;;;;19.95;9.50;;;;;;;;;;5058915;28;20051;-78
2023/12/03 12:20:12;;;;;;;20.83;10.00;;;;;;;;;;5045388;28;20036;-79
2023/12/03 12:22:38;;;;;;;20.45;9.68;;;;;;;;;;5062651;28;20030;-79
2023/12/03 12:25:06;;;;;;;20.30;9.00;;;;;;;;;;5056305;28;20028;-79
2023/12/03 12:27:32;;;;;;;19.25;8.88;;;;;;;;;;5061368;28;20111;-79
2023/12/03 12:29:57;;;;;;;18.90;9.27;;;;;;;;;;5055093;28;20024;-79
2023/12/03 12:32:23;;;;;;;18.55;9.43;;;;;;;;;;5060117;28;20033;-79
2023/12/03 12:34:48;;;;;;;24.63;11.45;;;;;;;;;;5076971;28;20028;-79
2023/12/03 12:37:14;;;;;;;21.33;10.85;;;;;;;;;;5058576;28;20069;-79
2023/12/03 12:39:39;;;;;;;14.32;6.90;;;;;;;;;;5051190;28;20528;-78
2023/12/03 12:42:04;;;;;;;18.73;9.05;;;;;;;;;;5060779;28;20165;-79
2023/12/03 12:44:44;;;;;;;18.25;8.13;;;;;;;;;;5058601;28;20540;-79
2023/12/03 12:47:11;;;;;;;17.38;8.23;;;;;;;;;;5040394;28;20028;-79
2023/12/03 12:49:40;;;;;;;25.15;11.05;;;;;;;;;;5053309;28;22133;-79
2023/12/03 12:52:14;;;;;;;18.20;9.18;;;;;;;;;;5053733;28;20052;-79
2023/12/03 12:54:49;;;;;;;21.40;10.73;;;;;;;;;;5053959;28;20020;-79
2023/12/03 12:57:16;;;;;;;18.30;8.35;;;;;;;;;;5054504;28;20066;-79
2023/12/03 12:59:44;;;;;;;17.20;9.00;;;;;;;;;;5060612;28;20559;-79
2023/12/03 13:02:20;;;;;;;18.30;8.85;;;;;;;;;;5055966;28;20099;-79
2023/12/03 13:04:46;;;;;;;16.55;7.80;;;;;;;;;;5041976;28;20041;-79
2023/12/03 13:07:12;;;;;;;15.93;7.82;;;;;;;;;;5053882;28;20124;-82
2023/12/03 13:09:37;;;;;;;18.20;8.05;;;;;;;;;;5044250;28;20040;-83
2023/12/03 13:12:03;;;;;;;19.05;8.90;;;;;;;;;;5054906;28;20513;-82
2023/12/03 13:14:29;;;;;;;16.80;8.20;;;;;;;;;;5053873;28;20092;-82
2023/12/03 13:16:54;;;;;;;17.25;8.35;;;;;;;;;;5046858;28;20390;-82
2023/12/03 13:19:22;;;;;;;16.75;7.72;;;;;;;;;;5050887;28;20502;-82
2023/12/03 13:21:47;;;;;;;15.20;7.65;;;;;;;;;;5051315;28;20409;-82
2023/12/03 13:24:13;;;;;;;21.40;10.27;;;;;;;;;;5052373;28;20028;-81
2023/12/03 13:26:38;;;;;;;19.17;8.65;;;;;;;;;;5055133;28;20028;-80
2023/12/03 13:29:04;;;;;;;17.05;8.93;;;;;;;;;;5056407;28;20603;-79
2023/12/03 13:31:29;;;;;;;16.17;6.78;;;;;;;;;;5050339;28;20567;-80
2023/12/03 13:33:55;;;;;;;17.20;8.70;;;;;;;;;;5053062;28;20040;-80
2023/12/03 13:36:20;;;;;;;15.52;7.60;;;;;;;;;;5055126;28;20062;-79
2023/12/03 13:38:46;;;;;;;16.45;7.95;;;;;;;;;;5053052;28;20025;-79
2023/12/03 13:41:11;;;;;;;16.67;7.55;;;;;;;;;;5047863;28;20405;-79
2023/12/03 13:43:37;;;;;;;16.15;7.10;;;;;;;;;;5055749;28;20025;-78
2023/12/03 13:46:02;;;;;;;15.93;7.68;;;;;;;;;;5053764;28;20158;-79
2023/12/03 13:48:28;;;;;;;17.25;8.88;;;;;;;;;;5048165;28;20082;-79
2023/12/03 13:50:53;;;;;;;19.83;8.60;;;;;;;;;;5049975;28;20151;-79
2023/12/03 13:53:18;;;;;;;19.83;8.90;;;;;;;;;;5054579;28;20066;-79
2023/12/03 13:55:44;;;;;;;19.38;8.65;;;;;;;;;;5053500;28;20032;-79
2023/12/03 13:58:09;;;;;;;21.15;8.73;;;;;;;;;;5051407;28;20056;-80
2023/12/03 14:00:35;;;;;;;15.60;7.63;;;;;;;;;;5054995;28;20029;-79
2023/12/03 14:03:00;;;;;;;20.02;8.45;;;;;;;;;;5046630;28;20087;-79
2023/12/03 14:05:25;;;;;;;22.00;9.70;;;;;;;;;;5052358;28;20130;-80
2023/12/03 14:07:55;;;;;;;19.98;9.38;;;;;;;;;;5055964;28;20032;-80
2023/12/03 14:10:21;;;;;;;22.20;10.35;;;;;;;;;;5058362;28;20576;-79
2023/12/03 14:12:47;;;;;;;19.90;9.88;;;;;;;;;;5059397;28;20037;-80
2023/12/03 14:15:12;;;;;;;18.95;9.25;;;;;;;;;;5055683;28;20130;-80